Time;durP1;ratioP1;P1;durP2;ratioP2;P2;SDS_P1;SDS_P2;PMS_P1;PMS_P2;Temp;Humidity;BMP_temperature;BMP_pressure;BME280_temperature;BME280_humidity;BME280_pressure;Samples;Min_cycle;Max_cycle;Signal;HPM_P1;HPM_P2
2022/12/29 00:00:20;;;;;;;;;;;;;;;4.82;58.29;101130.50;5345935;32;36051;-68
2022/12/29 00:03:22;;;;;;;;;;;;;;;4.92;57.96;101133.94;5371781;32;35431;-66
2022/12/29 00:06:24;;;;;;;;;;;;;;;4.63;58.92;101139.22;5374924;32;35538;-65
2022/12/29 00:09:26;;;;;;;;;;;;;;;4.07;60.16;101132.41;5378746;32;35455;-67
2022/12/29 00:15:36;;;;;;;;;;;;;;;3.86;62.00;101150.59;5396077;32;34346;-82
2022/12/29 00:15:50;;;;;;;;;;;;;;;3.86;62.17;101150.59;5378385;32;45381;-67
2022/12/29 00:18:52;;;;;;;;;;;;;;;4.60;59.99;101141.87;5380781;32;34766;-81
2022/12/29 00:35:23;;;;;;;;;;;;;;;4.82;59.18;101122.69;5377548;32;34451;-80
2022/12/29 00:45:06;;;;;;;;;;;;;;;4.41;60.64;101137.56;5366381;32;34875;-69
2022/12/29 00:48:07;;;;;;;;;;;;;;;3.89;62.50;101132.41;5355673;32;36481;-80
2022/12/29 00:51:09;;;;;;;;;;;;;;;3.93;62.42;101134.12;5357904;32;35406;-81
2022/12/29 00:54:11;;;;;;;;;;;;;;;3.56;62.90;101126.31;5348390;32;35769;-82
2022/12/29 00:57:14;;;;;;;;;;;;;;;4.05;61.51;101132.37;5342252;32;34991;-67
2022/12/29 01:00:18;;;;;;;;;;;;;;;4.03;61.58;101138.47;5376359;32;43108;-81
2022/12/29 01:03:20;;;;;;;;;;;;;;;4.20;61.81;101135.88;5376273;32;34630;-67
2022/12/29 01:06:22;;;;;;;;;;;;;;;3.62;63.49;101128.06;5380527;32;35319;-67
2022/12/29 01:12:47;;;;;;;;;;;;;;;4.48;60.72;101137.53;5372429;32;34893;-81
2022/12/29 01:15:49;;;;;;;;;;;;;;;4.76;59.69;101120.09;5373958;32;45125;-68
2022/12/29 01:18:51;;;;;;;;;;;;;;;4.95;58.98;101123.50;5348872;32;34980;-68
2022/12/29 01:21:53;;;;;;;;;;;;;;;4.66;59.35;101121.00;5361890;32;34299;-68
2022/12/29 01:24:55;;;;;;;;;;;;;;;4.60;59.63;101134.06;5346248;32;34214;-81
2022/12/29 01:27:57;;;;;;;;;;;;;;;4.43;60.25;101133.22;5368335;32;34584;-75
2022/12/29 01:31:00;;;;;;;;;;;;;;;4.57;59.60;101129.72;5348613;32;34879;-68
2022/12/29 01:34:02;;;;;;;;;;;;;;;4.38;60.50;101132.34;5334753;32;35445;-80
2022/12/29 01:37:04;;;;;;;;;;;;;;;4.70;59.73;101119.25;5362593;32;35562;-68
2022/12/29 01:40:06;;;;;;;;;;;;;;;4.50;60.46;101121.91;5355190;32;34239;-67
2022/12/29 01:43:08;;;;;;;;;;;;;;;4.89;58.87;101116.59;5364376;32;34490;-80
2022/12/29 01:46:16;;;;;;;;;;;;;;;3.50;63.10;101134.09;5341749;32;34823;-67
2022/12/29 01:49:19;;;;;;;;;;;;;;;3.68;62.05;101138.47;5372144;32;45099;-67
2022/12/29 01:52:21;;;;;;;;;;;;;;;4.02;61.75;101123.75;5330288;32;35256;-67
2022/12/29 01:55:23;;;;;;;;;;;;;;;4.91;59.30;101115.72;5353741;32;34175;-68
2022/12/29 01:58:27;;;;;;;;;;;;;;;4.42;60.14;101121.94;5350747;32;35149;-82
2022/12/29 02:01:29;;;;;;;;;;;;;;;4.23;60.96;101121.09;5357279;32;34304;-68
2022/12/29 02:04:32;;;;;;;;;;;;;;;4.11;60.67;101112.44;5370550;32;35024;-80
2022/12/29 02:07:34;;;;;;;;;;;;;;;4.16;60.84;101110.72;5354787;32;35261;-74
2022/12/29 02:10:36;;;;;;;;;;;;;;;4.64;60.00;101096.72;5355879;32;35532;-69
2022/12/29 02:13:38;;;;;;;;;;;;;;;3.74;61.82;101105.53;5357778;32;34938;-80
2022/12/29 02:16:43;;;;;;;;;;;;;;;3.56;62.72;101102.06;5353652;32;35674;-80
2022/12/29 02:20:03;;;;;;;;;;;;;;;3.30;64.04;101096.84;5372228;32;35124;-67
2022/12/29 02:23:11;;;;;;;;;;;;;;;4.11;61.68;101096.84;5352732;32;35419;-67
2022/12/29 02:26:23;;;;;;;;;;;;;;;3.42;63.35;101094.25;5370364;32;35097;-68
2022/12/29 02:29:33;;;;;;;;;;;;;;;3.98;62.32;101091.66;5363466;32;44664;-67
2022/12/29 02:32:46;;;;;;;;;;;;;;;3.61;63.57;101085.63;5366191;32;36300;-68
2022/12/29 02:35:54;;;;;;;;;;;;;;;3.67;62.27;101096.00;5368895;32;43677;-67
2022/12/29 02:39:02;;;;;;;;;;;;;;;3.02;64.25;101094.13;5360356;32;34676;-75
2022/12/29 02:42:06;;;;;;;;;;;;;;;3.16;63.79;101086.41;5392047;32;35482;-68
2022/12/29 02:45:30;;;;;;;;;;;;;;;3.30;63.95;101084.69;5378522;32;35569;-67
2022/12/29 02:48:36;;;;;;;;;;;;;;;3.61;63.05;101080.41;5374289;32;34725;-81
2022/12/29 02:51:47;;;;;;;;;;;;;;;3.01;63.99;101084.63;5373855;32;34550;-82
2022/12/29 02:54:49;;;;;;;;;;;;;;;2.87;65.71;101088.91;5358866;32;45254;-68
2022/12/29 02:58:10;;;;;;;;;;;;;;;2.74;65.79;101089.72;5369397;32;35249;-67
2022/12/29 03:01:24;;;;;;;;;;;;;;;3.20;64.22;101083.81;5352819;32;35317;-80
2022/12/29 03:04:32;;;;;;;;;;;;;;;3.46;63.57;101078.66;5358192;32;35163;-81
2022/12/29 03:07:44;;;;;;;;;;;;;;;2.39;67.32;101086.12;5371614;32;35392;-67
2022/12/29 03:10:49;;;;;;;;;;;;;;;3.10;65.46;101076.00;5371783;32;35456;-80
2022/12/29 03:17:22;;;;;;;;;;;;;;;3.09;65.40;101062.16;5379144;32;34193;-81
2022/12/29 03:20:26;;;;;;;;;;;;;;;2.63;67.24;101063.72;5340274;32;44664;-66
2022/12/29 03:23:28;;;;;;;;;;;;;;;3.34;65.22;101069.97;5355553;32;35694;-80
2022/12/29 03:26:30;;;;;;;;;;;;;;;2.86;65.56;101071.59;5347517;32;35834;-76
2022/12/29 03:29:33;;;;;;;;;;;;;;;3.12;65.52;101064.75;5355979;32;35238;-68
2022/12/29 03:32:36;;;;;;;;;;;;;;;2.45;66.49;101059.34;5334988;32;34957;-68
2022/12/29 03:35:39;;;;;;;;;;;;;;;3.15;64.55;101054.34;5362122;32;34893;-81
2022/12/29 03:38:42;;;;;;;;;;;;;;;2.65;66.37;101044.72;5346058;32;35481;-81
2022/12/29 03:41:44;;;;;;;;;;;;;;;3.05;65.84;101039.63;5333218;32;34818;-67
2022/12/29 03:44:46;;;;;;;;;;;;;;;2.93;66.17;101048.25;5366848;32;43047;-80
2022/12/29 03:47:48;;;;;;;;;;;;;;;3.10;64.99;101044.84;5353827;32;35933;-81
2022/12/29 03:50:50;;;;;;;;;;;;;;;2.88;65.40;101043.91;5352449;32;35210;-67
2022/12/29 03:53:52;;;;;;;;;;;;;;;3.09;64.48;101048.28;5345991;32;35432;-81
2022/12/29 03:56:54;;;;;;;;;;;;;;;3.09;64.88;101043.97;5365962;32;35818;-81
2022/12/29 03:59:56;;;;;;;;;;;;;;;2.60;66.10;101037.78;5382250;32;35637;-82
2022/12/29 04:02:58;;;;;;;;;;;;;;;2.92;65.03;101050.84;5365177;32;34971;-79
2022/12/29 04:06:00;;;;;;;;;;;;;;;3.00;64.66;101046.53;5372524;32;36727;-81
2022/12/29 04:09:02;;;;;;;;;;;;;;;2.95;64.54;101051.72;5353009;32;35833;-80
2022/12/29 04:12:04;;;;;;;;;;;;;;;3.31;64.26;101055.25;5363448;32;34631;-67
2022/12/29 04:15:06;;;;;;;;;;;;;;;3.42;63.68;101057.87;5354603;32;35561;-67
2022/12/29 04:18:08;;;;;;;;;;;;;;;3.62;63.45;101047.47;5366601;32;34958;-81
2022/12/29 04:21:10;;;;;;;;;;;;;;;3.13;63.86;101047.44;5353973;32;35088;-67
2022/12/29 04:24:12;;;;;;;;;;;;;;;3.25;63.31;101045.72;5347656;32;35214;-81
2022/12/29 04:27:14;;;;;;;;;;;;;;;4.26;60.77;101058.66;5364544;32;35885;-68
2022/12/29 04:30:16;;;;;;;;;;;;;;;3.14;64.29;101046.56;5375317;32;44498;-80
2022/12/29 04:33:19;;;;;;;;;;;;;;;2.94;66.25;101052.56;5380704;32;34465;-81
2022/12/29 04:36:21;;;;;;;;;;;;;;;3.41;64.81;101056.97;5373527;32;34783;-80
2022/12/29 04:39:30;;;;;;;;;;;;;;;3.82;63.42;101057.87;5370496;32;34375;-67
2022/12/29 04:42:32;;;;;;;;;;;;;;;3.81;62.51;101057.00;5389412;32;34771;-67
2022/12/29 04:45:34;;;;;;;;;;;;;;;3.46;63.45;101050.06;5364079;32;35417;-67
2022/12/29 04:48:36;;;;;;;;;;;;;;;2.83;66.59;101048.22;5393687;32;35595;-76
2022/12/29 04:51:38;;;;;;;;;;;;;;;2.88;65.94;101052.56;5360010;32;34787;-81
2022/12/29 04:54:40;;;;;;;;;;;;;;;2.12;69.14;101055.66;5379106;32;35252;-81
2022/12/29 04:57:42;;;;;;;;;;;;;;;2.36;68.99;101054.09;5379127;32;35894;-81
2022/12/29 05:00:44;;;;;;;;;;;;;;;2.61;68.58;101057.66;5368990;32;34962;-81
2022/12/29 05:03:46;;;;;;;;;;;;;;;3.67;63.82;101059.63;5388579;32;35753;-68
2022/12/29 05:06:49;;;;;;;;;;;;;;;3.72;62.46;101055.25;5374904;32;44630;-80
2022/12/29 05:09:51;;;;;;;;;;;;;;;2.65;65.94;101057.69;5395207;32;34989;-81
2022/12/29 05:12:53;;;;;;;;;;;;;;;2.40;66.02;101063.63;5377014;32;34500;-82
2022/12/29 05:15:54;;;;;;;;;;;;;;;2.50;67.04;101072.31;5377976;32;35378;-75
2022/12/29 05:18:56;;;;;;;;;;;;;;;2.30;67.58;101061.84;5378824;32;35052;-67
2022/12/29 05:21:58;;;;;;;;;;;;;;;2.23;67.42;101063.53;5380052;32;35248;-69
2022/12/29 05:25:00;;;;;;;;;;;;;;;2.22;67.76;101055.75;5389316;32;35212;-68
2022/12/29 05:28:02;;;;;;;;;;;;;;;2.46;66.33;101053.28;5377541;32;34231;-81
2022/12/29 05:31:04;;;;;;;;;;;;;;;1.86;68.16;101052.91;5391358;32;34377;-81
2022/12/29 05:34:06;;;;;;;;;;;;;;;2.06;67.91;101054.78;5360680;32;34827;-77
2022/12/29 05:37:08;;;;;;;;;;;;;;;2.58;66.40;101055.06;5389699;32;34925;-80
2022/12/29 05:40:10;;;;;;;;;;;;;;;2.28;66.71;101058.38;5371792;32;34078;-68
2022/12/29 05:43:12;;;;;;;;;;;;;;;2.46;66.37;101061.06;5380192;32;34188;-81
2022/12/29 05:46:14;;;;;;;;;;;;;;;2.70;65.00;101048.19;5390232;32;35686;-67
2022/12/29 05:49:16;;;;;;;;;;;;;;;3.21;63.15;101048.31;5359260;32;45528;-68
2022/12/29 05:52:19;;;;;;;;;;;;;;;2.80;64.07;101040.44;5337364;32;34907;-82
2022/12/29 05:55:21;;;;;;;;;;;;;;;2.54;64.51;101038.59;5342073;32;36383;-68
2022/12/29 05:58:22;;;;;;;;;;;;;;;2.39;66.06;101033.37;5364472;32;34934;-67
2022/12/29 06:01:24;;;;;;;;;;;;;;;1.97;68.71;101037.44;5360073;32;34352;-81
2022/12/29 06:04:26;;;;;;;;;;;;;;;1.86;69.23;101033.91;5349665;32;34187;-81
2022/12/29 06:07:28;;;;;;;;;;;;;;;2.30;68.54;101035.91;5368311;32;34907;-80
2022/12/29 06:10:30;;;;;;;;;;;;;;;2.55;66.26;101037.75;5349431;32;36403;-75
2022/12/29 06:13:32;;;;;;;;;;;;;;;2.49;67.02;101032.53;5364785;32;35459;-81
2022/12/29 06:16:34;;;;;;;;;;;;;;;2.99;65.53;101031.81;5343322;32;34956;-68
2022/12/29 06:19:36;;;;;;;;;;;;;;;1.43;68.61;101033.59;5370492;32;35013;-66
2022/12/29 06:22:38;;;;;;;;;;;;;;;2.43;67.22;101033.34;5359756;32;35494;-67
2022/12/29 06:25:40;;;;;;;;;;;;;;;2.88;65.64;101038.72;5356393;32;35434;-81
2022/12/29 06:28:42;;;;;;;;;;;;;;;3.32;63.51;101024.94;5364620;32;35571;-81
2022/12/29 06:31:48;;;;;;;;;;;;;;;3.21;63.63;101037.91;5357427;32;33217;-68
2022/12/29 06:34:50;;;;;;;;;;;;;;;2.78;64.60;101035.25;5383911;32;44538;-67
2022/12/29 06:37:52;;;;;;;;;;;;;;;3.24;63.25;101024.94;5364981;32;35463;-66
2022/12/29 06:40:54;;;;;;;;;;;;;;;3.16;63.18;101031.88;5357685;32;34391;-80
2022/12/29 06:43:56;;;;;;;;;;;;;;;3.50;62.90;101037.94;5372908;32;33434;-82
2022/12/29 06:46:58;;;;;;;;;;;;;;;3.41;62.80;101035.31;5363511;32;36173;-81
2022/12/29 06:50:00;;;;;;;;;;;;;;;2.34;66.03;101050.63;5380246;32;35430;-66
2022/12/29 06:53:02;;;;;;;;;;;;;;;1.89;67.91;101046.91;5360686;32;34973;-66
2022/12/29 06:56:04;;;;;;;;;;;;;;;2.83;66.65;101054.25;5395908;32;34912;-66
2022/12/29 06:59:06;;;;;;;;;;;;;;;2.18;67.91;101060.91;5379033;32;35607;-75
2022/12/29 07:02:09;;;;;;;;;;;;;;;2.44;67.05;101042.88;5394776;32;35199;-81
2022/12/29 07:05:13;;;;;;;;;;;;;;;2.61;65.80;101050.75;5367687;32;35329;-66
2022/12/29 07:08:15;;;;;;;;;;;;;;;1.75;69.56;101053.72;5374879;32;35432;-67
2022/12/29 07:11:17;;;;;;;;;;;;;;;2.86;65.37;101050.84;5379534;32;43443;-81
2022/12/29 07:14:19;;;;;;;;;;;;;;;2.38;67.87;101062.72;5360517;32;36292;-67
2022/12/29 07:17:21;;;;;;;;;;;;;;;2.68;67.25;101065.47;5385787;32;34517;-80
2022/12/29 07:20:23;;;;;;;;;;;;;;;1.55;70.63;101074.28;5380053;32;35792;-68
2022/12/29 07:23:28;;;;;;;;;;;;;;;2.95;67.00;101056.03;5385851;32;34170;-81
2022/12/29 07:26:29;;;;;;;;;;;;;;;3.29;65.29;101061.31;5356744;32;36113;-67
2022/12/29 07:29:37;;;;;;;;;;;;;;;2.90;65.17;101058.66;5378682;32;36106;-76
2022/12/29 07:32:39;;;;;;;;;;;;;;;3.01;64.64;101061.25;5391284;32;34311;-68
2022/12/29 07:35:41;;;;;;;;;;;;;;;2.76;66.38;101069.81;5375991;32;35181;-67
2022/12/29 07:38:43;;;;;;;;;;;;;;;2.95;65.55;101069.03;5379488;32;34796;-82
2022/12/29 07:41:44;;;;;;;;;;;;;;;2.67;66.78;101065.47;5365810;32;34819;-67
2022/12/29 07:44:46;;;;;;;;;;;;;;;2.25;67.73;101066.12;5389327;32;43048;-68
2022/12/29 07:47:49;;;;;;;;;;;;;;;3.03;67.13;101066.44;5380778;32;34913;-68
2022/12/29 07:50:51;;;;;;;;;;;;;;;2.91;65.62;101067.31;5336912;32;35277;-68
2022/12/29 07:53:53;;;;;;;;;;;;;;;3.83;63.68;101072.59;5381469;32;35397;-68
2022/12/29 07:56:55;;;;;;;;;;;;;;;4.42;60.56;101058.59;5360520;32;34763;-81
2022/12/29 07:59:57;;;;;;;;;;;;;;;4.40;59.76;101053.41;5361555;32;34920;-75
2022/12/29 08:02:59;;;;;;;;;;;;;;;2.15;67.51;101060.91;5345641;32;35076;-71
2022/12/29 08:06:01;;;;;;;;;;;;;;;2.98;66.75;101075.09;5358897;32;34580;-82
2022/12/29 08:09:03;;;;;;;;;;;;;;;3.01;66.30;101070.78;5359273;32;35451;-67
2022/12/29 08:12:17;;;;;;;;;;;;;;;3.79;63.35;101075.19;5371906;32;44763;-80
2022/12/29 08:15:19;;;;;;;;;;;;;;;3.51;63.06;101063.06;5382639;32;35214;-66
2022/12/29 08:18:23;;;;;;;;;;;;;;;3.30;64.00;101065.66;5364843;32;35017;-69
2022/12/29 08:21:26;;;;;;;;;;;;;;;3.20;64.34;101073.41;5395087;32;34519;-81
2022/12/29 08:24:28;;;;;;;;;;;;;;;2.88;66.08;101075.94;5379090;32;35083;-81
2022/12/29 08:27:30;;;;;;;;;;;;;;;3.86;63.41;101064.78;5382799;32;35350;-82
2022/12/29 08:30:32;;;;;;;;;;;;;;;3.49;64.41;101060.47;5386940;32;35107;-82
2022/12/29 08:33:34;;;;;;;;;;;;;;;3.59;63.70;101056.12;5374933;32;35501;-68
2022/12/29 08:36:36;;;;;;;;;;;;;;;4.33;62.24;101044.75;5391167;32;34909;-67
2022/12/29 08:39:38;;;;;;;;;;;;;;;4.62;60.19;101046.38;5379407;32;35571;-83
2022/12/29 08:42:40;;;;;;;;;;;;;;;2.86;64.67;101048.25;5383764;32;33666;-67
2022/12/29 08:45:42;;;;;;;;;;;;;;;3.93;63.30;101053.50;5364425;32;35731;-80
2022/12/29 08:48:44;;;;;;;;;;;;;;;3.69;63.68;101044.88;5367442;32;35097;-67
2022/12/29 08:51:46;;;;;;;;;;;;;;;4.60;61.00;101046.41;5355147;32;37810;-67
2022/12/29 08:54:48;;;;;;;;;;;;;;;4.10;62.27;101050.87;5366226;32;35795;-68
2022/12/29 08:57:50;;;;;;;;;;;;;;;3.87;62.38;101048.34;5393453;32;34374;-81
2022/12/29 09:00:55;;;;;;;;;;;;;;;3.54;64.02;101047.47;5379337;32;34966;-68
2022/12/29 09:03:57;;;;;;;;;;;;;;;4.21;60.91;101036.13;5376318;32;35403;-67
2022/12/29 09:07:17;;;;;;;;;;;;;;;4.14;61.55;101043.06;5359378;32;45462;-81
2022/12/29 09:10:19;;;;;;;;;;;;;;;4.76;58.52;101035.91;5359691;32;35691;-69
2022/12/29 09:13:21;;;;;;;;;;;;;;;3.22;63.60;101039.63;5337823;32;965975;-68
2022/12/29 09:16:23;;;;;;;;;;;;;;;3.92;62.50;101031.84;5351750;32;35094;-69
2022/12/29 09:19:25;;;;;;;;;;;;;;;3.15;63.49;101030.97;5360758;32;34332;-81
2022/12/29 09:22:27;;;;;;;;;;;;;;;3.97;62.88;101024.91;5352240;32;34563;-67
2022/12/29 09:25:29;;;;;;;;;;;;;;;3.71;63.01;101024.06;5368595;32;35304;-83
2022/12/29 09:28:31;;;;;;;;;;;;;;;2.90;65.41;101021.44;5346204;32;34794;-76
2022/12/29 09:31:33;;;;;;;;;;;;;;;3.28;64.66;101012.81;5352102;32;35773;-75
2022/12/29 09:34:35;;;;;;;;;;;;;;;3.23;64.52;101011.09;5382118;32;35182;-81
2022/12/29 09:37:37;;;;;;;;;;;;;;;4.14;62.87;101001.44;5350137;32;34786;-68
2022/12/29 09:40:39;;;;;;;;;;;;;;;4.32;61.26;101004.00;5367667;32;34477;-67
2022/12/29 09:43:48;;;;;;;;;;;;;;;4.74;60.49;100999.44;5332811;32;34747;-83
2022/12/29 09:46:50;;;;;;;;;;;;;;;4.53;59.89;100992.63;5373987;32;44665;-83
2022/12/29 09:49:53;;;;;;;;;;;;;;;4.77;59.43;100981.22;5376166;32;35032;-82
2022/12/29 09:53:28;;;;;;;;;;;;;;;5.82;56.83;100983.84;5334836;32;34866;-68
2022/12/29 09:56:30;;;;;;;;;;;;;;;5.61;57.66;100983.19;5351675;32;36175;-68
2022/12/29 09:59:39;;;;;;;;;;;;;;;4.88;58.05;100989.81;5363580;32;35634;-67
2022/12/29 10:02:48;;;;;;;;;;;;;;;4.79;60.11;100989.03;5374084;32;34647;-67
2022/12/29 10:05:53;;;;;;;;;;;;;;;3.49;63.82;100992.03;5374662;32;45768;-68
2022/12/29 10:08:54;;;;;;;;;;;;;;;4.45;61.09;100978.78;5358259;32;34511;-68
2022/12/29 10:12:06;;;;;;;;;;;;;;;4.08;62.81;100983.25;5374057;32;34070;-82
2022/12/29 10:15:11;;;;;;;;;;;;;;;4.71;61.09;100963.03;5351212;32;34293;-82
2022/12/29 10:18:19;;;;;;;;;;;;;;;4.52;61.38;100966.59;5389361;32;34321;-83
2022/12/29 10:21:25;;;;;;;;;;;;;;;4.57;61.67;100957.00;5380102;32;44440;-83
2022/12/29 10:24:27;;;;;;;;;;;;;;;4.17;62.04;100956.34;5365071;32;34884;-68
2022/12/29 10:27:30;;;;;;;;;;;;;;;3.81;62.04;100963.41;5382219;32;35051;-68
2022/12/29 10:30:33;;;;;;;;;;;;;;;4.71;60.53;100964.78;5378903;32;35295;-69
2022/12/29 10:33:39;;;;;;;;;;;;;;;4.67;60.93;100969.13;5377377;32;35382;-78
2022/12/29 10:36:47;;;;;;;;;;;;;;;4.59;60.92;100974.38;5364941;32;34817;-69
2022/12/29 10:39:52;;;;;;;;;;;;;;;4.73;60.54;100963.88;5355597;32;44564;-83
2022/12/29 10:42:55;;;;;;;;;;;;;;;3.82;63.21;100959.94;5361165;32;35778;-82
2022/12/29 10:46:04;;;;;;;;;;;;;;;4.58;60.82;100958.78;5338932;32;36120;-68
2022/12/29 10:49:06;;;;;;;;;;;;;;;4.11;62.44;100946.81;5377497;32;35176;-68
2022/12/29 10:52:09;;;;;;;;;;;;;;;4.94;59.96;100952.44;5347863;32;34894;-67
2022/12/29 10:55:15;;;;;;;;;;;;;;;4.90;60.76;100948.16;5397290;32;36406;-69
2022/12/29 10:58:17;;;;;;;;;;;;;;;4.52;60.68;100938.84;5365008;32;44624;-68
2022/12/29 11:01:20;;;;;;;;;;;;;;;4.45;60.87;100938.87;5368245;32;34640;-82
2022/12/29 11:04:25;;;;;;;;;;;;;;;5.47;58.62;100932.03;5396246;32;35094;-82
2022/12/29 11:07:27;;;;;;;;;;;;;;;3.78;63.25;100935.66;5380419;32;35264;-82
2022/12/29 11:10:32;;;;;;;;;;;;;;;4.31;62.85;100934.56;5396258;32;34723;-75
2022/12/29 11:13:35;;;;;;;;;;;;;;;4.53;61.83;100935.34;5380493;32;34810;-82
2022/12/29 11:16:41;;;;;;;;;;;;;;;5.12;59.67;100925.41;5395677;32;34738;-81
2022/12/29 11:19:43;;;;;;;;;;;;;;;6.06;57.27;100923.62;5373603;32;35280;-83
2022/12/29 11:22:45;;;;;;;;;;;;;;;6.32;56.31;100936.34;5354717;32;34898;-67
2022/12/29 11:26:05;;;;;;;;;;;;;;;6.03;57.18;100920.16;5369491;32;45470;-68
2022/12/29 11:29:07;;;;;;;;;;;;;;;6.12;56.16;100922.69;5342708;32;34965;-82
2022/12/29 11:32:24;;;;;;;;;;;;;;;5.23;59.50;100930.53;5373677;32;35510;-69
2022/12/29 11:35:40;;;;;;;;;;;;;;;5.18;60.33;100917.53;5360554;32;34914;-68
2022/12/29 11:38:46;;;;;;;;;;;;;;;6.12;58.08;100907.03;5357470;32;35610;-82
2022/12/29 11:41:51;;;;;;;;;;;;;;;6.30;56.22;100900.66;5375331;32;45174;-69
2022/12/29 11:44:53;;;;;;;;;;;;;;;6.08;57.12;100884.44;5361355;32;34427;-68
2022/12/29 11:47:56;;;;;;;;;;;;;;;7.64;53.26;100881.94;5371520;32;35687;-83
2022/12/29 11:51:01;;;;;;;;;;;;;;;6.31;57.05;100884.13;5332803;32;35258;-70
2022/12/29 11:54:03;;;;;;;;;;;;;;;6.49;56.69;100891.69;5346038;32;34369;-69
2022/12/29 11:57:09;;;;;;;;;;;;;;;7.53;53.07;100890.84;5345733;32;34483;-68
2022/12/29 12:00:30;;;;;;;;;;;;;;;7.79;54.07;100882.53;5371296;32;35352;-82
2022/12/29 12:03:33;;;;;;;;;;;;;;;9.38;48.49;100872.75;5378521;32;34635;-70
2022/12/29 12:06:36;;;;;;;;;;;;;;;8.89;49.19;100889.75;5380937;32;34310;-68
2022/12/29 12:09:42;;;;;;;;;;;;;;;8.39;50.26;100895.25;5379866;32;35711;-68
2022/12/29 12:12:47;;;;;;;;;;;;;;;9.74;48.05;100881.41;5383664;32;35354;-83
2022/12/29 12:15:55;;;;;;;;;;;;;;;11.99;42.55;100875.03;5369124;32;44727;-68
2022/12/29 12:19:16;;;;;;;;;;;;;;;10.89;43.38;100870.97;5371163;32;34221;-82
2022/12/29 12:22:27;;;;;;;;;;;;;;;11.54;42.49;100859.09;5359940;32;46191;-69
2022/12/29 12:25:31;;;;;;;;;;;;;;;10.49;44.16;100868.72;5362354;32;34678;-68
2022/12/29 12:28:35;;;;;;;;;;;;;;;11.77;42.03;100860.87;5337958;32;35789;-69
2022/12/29 12:31:40;;;;;;;;;;;;;;;11.28;42.18;100847.72;5357679;32;36015;-78
2022/12/29 12:34:43;;;;;;;;;;;;;;;10.53;44.98;100842.31;5371732;32;34956;-68
2022/12/29 12:38:08;;;;;;;;;;;;;;;12.35;41.83;100816.56;5363681;32;34524;-67
2022/12/29 12:41:19;;;;;;;;;;;;;;;13.51;38.94;100801.12;5355887;32;34476;-83
2022/12/29 12:44:25;;;;;;;;;;;;;;;11.76;42.45;100817.91;5380296;32;44724;-83
2022/12/29 12:47:30;;;;;;;;;;;;;;;13.48;38.31;100796.87;5366823;32;34976;-84
2022/12/29 12:50:42;;;;;;;;;;;;;;;12.18;41.05;100810.19;5370875;32;34836;-69
2022/12/29 12:53:44;;;;;;;;;;;;;;;10.29;45.43;100820.28;5356798;32;34609;-84
2022/12/29 12:56:51;;;;;;;;;;;;;;;13.50;39.57;100799.44;5397906;32;34423;-68
2022/12/29 12:59:58;;;;;;;;;;;;;;;15.99;34.75;100795.00;5380417;32;45842;-70
2022/12/29 13:03:10;;;;;;;;;;;;;;;15.64;34.20;100797.75;5385720;32;34355;-82
2022/12/29 13:06:15;;;;;;;;;;;;;;;12.90;39.13;100815.19;5380821;32;35161;-68
2022/12/29 13:09:23;;;;;;;;;;;;;;;11.24;42.91;100827.69;5375438;32;44563;-69
2022/12/29 13:12:31;;;;;;;;;;;;;;;10.57;44.37;100824.69;5394457;32;34951;-69
2022/12/29 13:15:42;;;;;;;;;;;;;;;9.18;47.86;100828.69;5382022;32;35459;-82
2022/12/29 13:18:53;;;;;;;;;;;;;;;10.36;44.84;100833.22;5388565;32;35463;-83
2022/12/29 13:22:01;;;;;;;;;;;;;;;10.25;45.44;100829.19;5388567;32;46270;-68
2022/12/29 13:25:13;;;;;;;;;;;;;;;9.39;47.58;100830.75;5377522;32;35033;-83
2022/12/29 13:28:17;;;;;;;;;;;;;;;9.49;47.56;100829.59;5379989;32;35780;-81
2022/12/29 13:31:28;;;;;;;;;;;;;;;8.04;51.83;100846.22;5377749;32;44418;-68
2022/12/29 13:34:30;;;;;;;;;;;;;;;8.32;51.04;100843.87;5387802;32;33210;-82
2022/12/29 13:37:33;;;;;;;;;;;;;;;8.84;49.97;100836.59;5379115;32;34045;-69
2022/12/29 13:40:38;;;;;;;;;;;;;;;8.41;50.26;100843.69;5381243;32;34941;-76
2022/12/29 13:43:40;;;;;;;;;;;;;;;7.87;52.42;100840.50;5379895;32;35588;-68
2022/12/29 13:46:43;;;;;;;;;;;;;;;7.63;53.86;100848.84;5378461;32;35054;-82
2022/12/29 13:49:45;;;;;;;;;;;;;;;7.86;53.16;100855.34;5381220;32;34979;-68
2022/12/29 13:52:49;;;;;;;;;;;;;;;7.76;53.19;100853.78;5352609;32;45401;-68
2022/12/29 13:55:58;;;;;;;;;;;;;;;6.90;56.23;100851.91;5394057;32;35521;-69
2022/12/29 13:59:05;;;;;;;;;;;;;;;6.92;55.63;100844.03;5389171;32;35721;-68
2022/12/29 14:02:28;;;;;;;;;;;;;;;7.62;55.41;100847.97;5385194;32;35897;-81
2022/12/29 14:05:31;;;;;;;;;;;;;;;7.27;55.07;100856.47;5374169;32;35228;-78
2022/12/29 14:08:33;;;;;;;;;;;;;;;8.65;52.77;100855.38;5368264;32;35223;-69
2022/12/29 14:11:36;;;;;;;;;;;;;;;9.13;51.06;100854.19;5390128;32;34803;-82
2022/12/29 14:14:38;;;;;;;;;;;;;;;8.40;53.02;100864.69;5363399;32;36351;-69
2022/12/29 14:17:40;;;;;;;;;;;;;;;8.35;52.59;100863.87;5379055;32;35095;-83
2022/12/29 14:20:48;;;;;;;;;;;;;;;8.54;51.27;100862.59;5389527;32;35005;-68
2022/12/29 14:23:50;;;;;;;;;;;;;;;8.96;50.44;100849.38;5355975;32;44491;-83
2022/12/29 14:26:52;;;;;;;;;;;;;;;8.23;52.23;100845.81;5362403;32;35517;-69
2022/12/29 14:29:54;;;;;;;;;;;;;;;7.88;53.55;100850.94;5373157;32;35332;-83
2022/12/29 14:33:03;;;;;;;;;;;;;;;7.68;54.04;100847.00;5366334;32;34512;-82
2022/12/29 14:36:41;;;;;;;;;;;;;;;7.78;53.27;100841.53;5370552;32;34691;-69
2022/12/29 14:39:44;;;;;;;;;;;;;;;7.58;54.73;100843.69;5319210;32;34933;-83
2022/12/29 14:42:46;;;;;;;;;;;;;;;7.10;56.27;100855.94;5379796;32;45131;-79
2022/12/29 14:45:51;;;;;;;;;;;;;;;7.14;56.43;100861.06;5374845;32;34615;-83
2022/12/29 14:48:57;;;;;;;;;;;;;;;7.87;53.96;100856.19;5374600;32;36270;-82
2022/12/29 14:52:25;;;;;;;;;;;;;;;7.54;55.09;100858.59;5371144;32;34833;-82
2022/12/29 14:55:32;;;;;;;;;;;;;;;7.83;54.11;100868.47;5379250;32;35035;-68
2022/12/29 14:58:53;;;;;;;;;;;;;;;7.48;54.71;100866.56;5382425;32;34981;-68
2022/12/29 15:01:55;;;;;;;;;;;;;;;5.50;60.56;100870.31;5345964;32;44537;-68
2022/12/29 15:04:58;;;;;;;;;;;;;;;5.30;61.42;100867.91;5371375;32;35575;-82
2022/12/29 15:08:00;;;;;;;;;;;;;;;5.60;60.74;100864.13;5370369;32;34801;-83
2022/12/29 15:11:18;;;;;;;;;;;;;;;5.60;60.70;100876.25;5346217;32;35180;-81
2022/12/29 15:14:32;;;;;;;;;;;;;;;5.55;61.26;100876.34;5378793;32;44864;-68
2022/12/29 15:17:34;;;;;;;;;;;;;;;5.16;61.49;100891.50;5352664;32;35500;-75
2022/12/29 15:20:36;;;;;;;;;;;;;;;4.58;64.65;100904.09;5361184;32;34373;-82
2022/12/29 15:23:38;;;;;;;;;;;;;;;5.18;62.81;100898.44;5359031;32;34794;-81
2022/12/29 15:26:40;;;;;;;;;;;;;;;4.79;63.82;100905.69;5372946;32;35318;-81
2022/12/29 15:29:43;;;;;;;;;;;;;;;4.26;65.03;100902.53;5382104;32;34852;-67
2022/12/29 15:32:46;;;;;;;;;;;;;;;5.04;63.44;100898.53;5361991;32;35395;-83
2022/12/29 15:35:51;;;;;;;;;;;;;;;4.72;63.89;100898.78;5371955;32;47167;-83
2022/12/29 15:38:54;;;;;;;;;;;;;;;4.42;65.27;100897.22;5361281;32;34615;-77
2022/12/29 15:42:07;;;;;;;;;;;;;;;4.15;66.29;100896.50;5384564;32;35429;-82
2022/12/29 15:45:10;;;;;;;;;;;;;;;5.00;63.50;100891.63;5379946;32;34986;-68
2022/12/29 15:48:19;;;;;;;;;;;;;;;4.79;63.95;100903.94;5363140;32;35584;-82
2022/12/29 15:51:32;;;;;;;;;;;;;;;4.81;63.82;100904.78;5365421;32;44648;-68
2022/12/29 15:54:34;;;;;;;;;;;;;;;4.19;65.14;100910.38;5363964;32;34803;-69
2022/12/29 15:57:37;;;;;;;;;;;;;;;3.85;66.28;100900.09;5392168;32;34742;-76
2022/12/29 16:00:39;;;;;;;;;;;;;;;3.51;68.51;100904.53;5370014;32;36110;-85
2022/12/29 16:03:41;;;;;;;;;;;;;;;4.27;65.45;100900.78;5377748;32;35433;-83
2022/12/29 16:07:00;;;;;;;;;;;;;;;4.07;65.87;100904.34;5385728;32;34393;-82
2022/12/29 16:10:02;;;;;;;;;;;;;;;4.61;64.30;100906.66;5366194;32;35465;-76
2022/12/29 16:13:24;;;;;;;;;;;;;;;4.13;65.68;100905.22;5380643;32;35683;-76
2022/12/29 16:16:28;;;;;;;;;;;;;;;4.39;64.88;100898.13;5381055;32;35626;-68
2022/12/29 16:19:33;;;;;;;;;;;;;;;4.13;65.69;100903.47;5379776;32;34380;-68
2022/12/29 16:22:43;;;;;;;;;;;;;;;4.29;65.23;100909.44;5393133;32;34173;-77
2022/12/29 16:25:45;;;;;;;;;;;;;;;4.27;64.67;100896.44;5352101;32;34924;-83